Skip Navigation Links
NOAA logo - Click to go to the NOAA homepage
NOAA's National Weather Service
Alaska Aviation Weather Unit
  NWS logo - Click to go to the NWS homepage
Left Navbar Graphic     02 AKDT = 10 GMT

   
NOAA is celebrating 200 years of science, service, and stewardship. Visit the NOAA 200th celebration Web site to learn more.
USA.gov is the U.S. Government's official Web portal to all Federal, state and local government Web resources and services.
Facebook
NWS on Facebook

AAWU Home :: Display TAF Add Bookmark
TAF PABR 270520Z 2706/2806 27005KT P6SM SKC
     FM270800 24006KT P6SM SCT040 OVC100
     FM271500 18004KT P6SM BKN040 OVC100
     FM272200 10004KT P6SM BKN040 OVC100=
PABR 270453Z 27005KT 10SM CLR M21/M24 A3007=

PABR 270553Z 27005KT 10SM CLR M22/M25 A3008=

PABR 270653Z AUTO 27005KT 10SM CLR M23/M26 A3009=

PABR 270753Z AUTO 28004KT 10SM SCT047 M23/M25 A3010=

PABR 270853Z AUTO 30003KT 10SM CLR M22/M24 A3011=

PABR 270953Z AUTO 00000KT 10SM CLR M23/M26 A3012=


NOAA's National Weather Service
Alaska Aviation Weather Unit
6930 Sand Lake Road
Anchorage, AK 99502-1845
Disclaimer
Credits
Glossary
Privacy Policy
About Us
Career Opportunities
Contact AAWU Internet Services Site last modified: April, 17th 2012